createdAt,value
2022-11-15T00:02:13.954Z,11.34
2022-11-15T00:04:46.745Z,11.39
2022-11-15T00:07:53.536Z,11.26
2022-11-15T00:10:11.760Z,11.09
2022-11-15T00:12:38.732Z,11.01
2022-11-15T00:15:09.018Z,11.03
2022-11-15T00:17:43.141Z,10.80
2022-11-15T00:20:10.453Z,10.62
2022-11-15T00:22:39.247Z,10.51
2022-11-15T00:25:10.462Z,10.43
2022-11-15T00:27:42.906Z,10.35
2022-11-15T00:30:12.460Z,10.41
2022-11-15T00:32:48.337Z,10.48
2022-11-15T00:35:17.035Z,10.50
2022-11-15T00:37:49.123Z,10.43
2022-11-15T00:40:16.555Z,10.32
2022-11-15T00:42:43.398Z,10.40
2022-11-15T00:45:14.616Z,10.38
2022-11-15T00:47:51.550Z,10.21
2022-11-15T00:50:23.119Z,10.19
2022-11-15T00:52:53.563Z,10.21
2022-11-15T00:55:20.744Z,10.22
2022-11-15T00:57:50.807Z,10.24
2022-11-15T01:00:18.795Z,10.21
2022-11-15T01:02:55.886Z,10.12
2022-11-15T01:05:23.054Z,10.09
2022-11-15T01:07:54.731Z,10.16
2022-11-15T01:10:22.335Z,10.42
2022-11-15T01:12:57.534Z,10.38
2022-11-15T01:15:25.556Z,10.29
2022-11-15T01:17:54.998Z,10.36
2022-11-15T01:20:21.929Z,10.33
2022-11-15T01:22:50.604Z,10.55
2022-11-15T01:25:18.751Z,10.39
2022-11-15T01:27:45.714Z,10.71
2022-11-15T01:30:12.975Z,10.59
2022-11-15T01:32:40.023Z,10.85
2022-11-15T01:35:08.032Z,10.54
2022-11-15T01:37:36.705Z,10.42
2022-11-15T01:40:04.643Z,10.42
2022-11-15T01:42:31.452Z,10.43
2022-11-15T01:45:05.030Z,10.25
2022-11-15T01:47:36.111Z,10.13
2022-11-15T01:50:15.483Z,10.11
2022-11-15T01:52:52.579Z,10.02
2022-11-15T01:55:27.194Z,10.11
2022-11-15T01:58:01.013Z,10.11
2022-11-15T02:00:30.985Z,9.99
2022-11-15T02:02:57.824Z,9.96
2022-11-15T02:05:24.791Z,9.91
2022-11-15T02:07:54.278Z,10.00
2022-11-15T02:10:28.560Z,10.05
2022-11-15T02:13:08.885Z,10.10
2022-11-15T02:16:10.857Z,9.99
2022-11-15T02:19:04.876Z,9.93
2022-11-15T02:21:52.977Z,10.01
2022-11-15T02:24:43.286Z,9.85
2022-11-15T02:27:52.001Z,9.83
2022-11-15T02:30:49.841Z,9.80
2022-11-15T02:33:46.018Z,9.78
2022-11-15T02:36:42.378Z,9.77
2022-11-15T02:39:55.230Z,9.87
2022-11-15T02:42:52.639Z,10.00
2022-11-15T02:45:38.879Z,10.01
2022-11-15T02:48:20.100Z,10.13
2022-11-15T02:50:50.985Z,10.14
2022-11-15T02:53:25.550Z,10.10
2022-11-15T02:56:01.500Z,10.26
2022-11-15T02:58:59.864Z,10.15
2022-11-15T03:01:45.759Z,10.08
2022-11-15T03:04:52.424Z,9.76
2022-11-15T03:07:47.630Z,9.74
2022-11-15T03:10:38.714Z,9.84
2022-11-15T03:13:31.248Z,9.68
2022-11-15T03:16:07.547Z,9.57
2022-11-15T03:18:39.817Z,9.63
2022-11-15T03:21:19.143Z,9.64
2022-11-15T03:23:56.536Z,9.70
2022-11-15T03:26:31.496Z,9.65
2022-11-15T03:29:28.511Z,9.64
2022-11-15T03:32:20.225Z,9.67
2022-11-15T03:35:20.462Z,9.67
2022-11-15T03:37:56.358Z,9.64
2022-11-15T03:40:50.049Z,9.81
2022-11-15T03:43:55.407Z,9.78
2022-11-15T03:47:01.398Z,9.75
2022-11-15T03:49:40.809Z,9.75
2022-11-15T03:52:18.601Z,9.62
2022-11-15T03:54:59.153Z,9.51
2022-11-15T03:57:30.414Z,9.73
2022-11-15T04:00:03.516Z,11.04
2022-11-15T04:02:33.631Z,10.66
2022-11-15T04:05:19.417Z,10.16
2022-11-15T04:07:53.769Z,10.00
2022-11-15T04:10:28.506Z,10.06
2022-11-15T04:12:57.116Z,9.69
2022-11-15T04:15:27.278Z,9.64
2022-11-15T04:18:04.207Z,9.62
2022-11-15T04:20:56.776Z,9.46
2022-11-15T04:23:45.778Z,9.22
2022-11-15T04:26:17.573Z,9.24
2022-11-15T04:29:11.106Z,9.35
2022-11-15T04:31:38.635Z,9.45
2022-11-15T04:34:05.418Z,9.50
2022-11-15T04:36:57.597Z,9.75
2022-11-15T04:39:25.430Z,10.39
2022-11-15T04:41:52.131Z,10.12
2022-11-15T04:44:24.936Z,9.90
2022-11-15T04:46:54.457Z,9.65
2022-11-15T04:49:21.443Z,9.47
2022-11-15T04:51:59.266Z,9.35
2022-11-15T04:54:29.561Z,9.28
2022-11-15T04:57:03.571Z,9.26
2022-11-15T04:59:36.272Z,9.30
2022-11-15T05:02:07.813Z,9.33
2022-11-15T05:04:41.386Z,9.47
2022-11-15T05:07:09.771Z,9.24
2022-11-15T05:09:40.010Z,9.20
2022-11-15T05:12:15.302Z,9.30
2022-11-15T05:14:44.175Z,9.22
2022-11-15T05:17:10.982Z,9.22
2022-11-15T05:19:39.623Z,9.20
2022-11-15T05:22:13.234Z,9.16
2022-11-15T05:24:44.199Z,9.44
2022-11-15T05:27:15.194Z,9.34
2022-11-15T05:29:52.283Z,9.35
2022-11-15T05:32:25.830Z,9.29
2022-11-15T05:34:59.233Z,9.42
2022-11-15T05:37:41.890Z,9.54
2022-11-15T05:40:19.303Z,9.48
2022-11-15T05:42:52.117Z,9.53
2022-11-15T05:45:23.878Z,9.53
2022-11-15T05:47:56.849Z,9.80
2022-11-15T05:50:31.428Z,10.86
2022-11-15T05:53:04.868Z,10.59
2022-11-15T05:55:40.442Z,10.33
2022-11-15T05:58:13.987Z,10.26
2022-11-15T06:00:44.336Z,9.98
2022-11-15T06:03:11.619Z,10.04
2022-11-15T06:05:51.513Z,9.96
2022-11-15T06:08:25.702Z,9.93
2022-11-15T06:10:56.769Z,9.83
2022-11-15T06:13:35.303Z,9.91
2022-11-15T06:16:12.221Z,10.90
2022-11-15T06:18:51.721Z,10.68
2022-11-15T06:21:22.855Z,11.00
2022-11-15T06:23:58.712Z,11.09
2022-11-15T06:26:29.746Z,10.53
2022-11-15T06:29:00.921Z,10.29
2022-11-15T06:31:30.717Z,10.15
2022-11-15T06:33:57.963Z,10.28
2022-11-15T06:36:26.586Z,10.32
2022-11-15T06:38:55.321Z,11.20
2022-11-15T06:41:24.829Z,10.88
2022-11-15T06:43:51.972Z,10.73
2022-11-15T06:46:19.941Z,10.63
2022-11-15T06:48:52.006Z,10.46
2022-11-15T06:51:24.955Z,10.38
2022-11-15T06:53:52.115Z,11.08
2022-11-15T06:56:26.944Z,11.03
2022-11-15T06:59:13.181Z,10.88
2022-11-15T07:02:07.409Z,10.72
2022-11-15T07:08:35.092Z,10.48
2022-11-15T07:11:12.175Z,10.43
2022-11-15T07:13:44.094Z,10.41
2022-11-15T07:16:16.210Z,10.47
2022-11-15T07:18:51.124Z,10.42
2022-11-15T07:21:27.849Z,10.40
2022-11-15T07:24:02.850Z,10.58
2022-11-15T07:26:31.955Z,10.66
2022-11-15T07:28:58.855Z,10.71
2022-11-15T07:31:26.574Z,10.90
2022-11-15T07:33:59.639Z,11.06
2022-11-15T07:36:29.569Z,11.19
2022-11-15T07:38:56.354Z,11.05
2022-11-15T07:41:27.349Z,11.08
2022-11-15T07:43:54.151Z,11.10
2022-11-15T07:46:26.739Z,11.03
2022-11-15T07:48:57.973Z,11.19
2022-11-15T07:51:25.544Z,11.02
2022-11-15T07:53:52.313Z,11.05
2022-11-15T07:56:28.113Z,11.08
2022-11-15T07:59:05.119Z,11.12
2022-11-15T08:01:34.822Z,11.30
2022-11-15T08:04:05.593Z,11.38
2022-11-15T08:06:39.603Z,11.57
2022-11-15T08:09:07.058Z,11.59
2022-11-15T08:11:39.964Z,11.48
2022-11-15T08:14:18.661Z,11.42
2022-11-15T08:16:51.944Z,11.48
2022-11-15T08:19:31.620Z,11.77
2022-11-15T08:22:02.094Z,11.98
2022-11-15T08:24:42.708Z,12.25
2022-11-15T08:27:19.305Z,12.54
2022-11-15T08:29:59.700Z,12.00
2022-11-15T08:32:37.817Z,11.74
2022-11-15T08:35:12.430Z,11.63
2022-11-15T08:37:47.027Z,11.56
2022-11-15T08:40:25.942Z,11.58
2022-11-15T08:42:54.802Z,11.92
2022-11-15T08:45:21.919Z,12.79
2022-11-15T08:47:55.758Z,13.21
2022-11-15T08:50:31.622Z,13.80
2022-11-15T08:53:17.683Z,14.01
2022-11-15T08:55:52.052Z,13.38
2022-11-15T08:58:35.685Z,12.81
2022-11-15T09:01:20.603Z,12.35
2022-11-15T09:03:53.061Z,12.12
2022-11-15T09:06:34.865Z,12.05
2022-11-15T09:09:15.117Z,11.99
2022-11-15T09:11:42.672Z,11.81
2022-11-15T09:14:23.520Z,11.89
2022-11-15T09:16:50.842Z,11.91
2022-11-15T09:19:20.714Z,11.95
2022-11-15T09:21:52.843Z,11.95
2022-11-15T09:24:45.886Z,12.98
2022-11-15T09:30:15.428Z,12.99
2022-11-15T09:33:01.863Z,13.10
2022-11-15T09:35:52.823Z,12.80
2022-11-15T09:38:26.737Z,12.65
2022-11-15T09:41:30.032Z,12.52
2022-11-15T09:44:46.496Z,12.24
2022-11-15T09:47:42.598Z,12.34
2022-11-15T09:50:35.887Z,12.55
2022-11-15T09:54:01.205Z,12.83
2022-11-15T09:56:53.568Z,12.71
2022-11-15T09:59:50.721Z,12.44
2022-11-15T10:03:10.704Z,12.87
2022-11-15T10:05:50.311Z,12.76
2022-11-15T10:08:49.329Z,12.52
2022-11-15T10:14:30.650Z,12.73
2022-11-15T10:17:45.942Z,12.83
2022-11-15T10:20:29.801Z,13.54
2022-11-15T10:23:21.095Z,14.28
2022-11-15T10:25:58.375Z,14.18
2022-11-15T10:28:44.218Z,14.54
2022-11-15T10:31:27.516Z,14.58
2022-11-15T10:34:28.846Z,13.92
2022-11-15T10:37:09.983Z,14.40
2022-11-15T10:39:37.103Z,15.12
2022-11-15T10:42:44.877Z,14.83
2022-11-15T10:45:31.059Z,14.60
2022-11-15T10:48:22.482Z,14.57
2022-11-15T10:50:53.520Z,13.76
2022-11-15T10:53:41.666Z,13.44
2022-11-15T10:56:25.066Z,13.35
2022-11-15T10:59:02.425Z,13.53
2022-11-15T11:01:46.431Z,14.37
2022-11-15T11:04:16.751Z,14.45
2022-11-15T11:07:03.138Z,15.04
2022-11-15T11:09:44.915Z,15.16
2022-11-15T11:12:16.827Z,15.54
2022-11-15T11:14:46.426Z,15.08
2022-11-15T11:18:04.917Z,14.70
2022-11-15T11:21:06.499Z,14.67
2022-11-15T11:23:47.684Z,14.52
2022-11-15T11:27:03.684Z,14.50
2022-11-15T11:30:17.731Z,14.43
2022-11-15T11:32:55.280Z,14.59
2022-11-15T11:35:52.754Z,14.64
2022-11-15T11:38:54.968Z,14.93
2022-11-15T11:41:51.599Z,14.93
2022-11-15T11:44:57.696Z,14.77
2022-11-15T11:47:37.912Z,14.39
2022-11-15T11:50:20.985Z,14.49
2022-11-15T11:53:04.823Z,15.11
2022-11-15T11:56:01.193Z,15.19
2022-11-15T11:58:38.160Z,14.78
2022-11-15T12:01:35.500Z,14.76
2022-11-15T12:04:22.822Z,15.14
2022-11-15T12:07:11.559Z,14.48
2022-11-15T12:10:22.072Z,14.14
2022-11-15T12:12:56.186Z,14.03
2022-11-15T12:15:35.099Z,13.85
2022-11-15T12:18:16.874Z,13.74
2022-11-15T12:21:27.032Z,14.39
2022-11-15T12:24:13.470Z,14.87
2022-11-15T12:27:12.539Z,14.99
2022-11-15T12:30:04.676Z,14.70
2022-11-15T12:33:03.582Z,14.97
2022-11-15T12:35:51.226Z,14.82
2022-11-15T12:38:54.701Z,14.85
2022-11-15T12:41:47.363Z,14.09
2022-11-15T12:44:38.521Z,13.98
2022-11-15T12:47:37.232Z,13.62
2022-11-15T12:50:24.649Z,14.03
2022-11-15T12:53:36.407Z,14.69
2022-11-15T12:56:33.835Z,14.15
2022-11-15T12:59:26.462Z,14.57
2022-11-15T13:02:08.691Z,14.42
2022-11-15T13:04:49.727Z,14.53
2022-11-15T13:07:46.267Z,14.94
2022-11-15T13:10:28.940Z,14.91
2022-11-15T13:13:20.508Z,14.94
2022-11-15T13:16:01.274Z,14.64
2022-11-15T13:18:47.164Z,14.09
2022-11-15T13:21:59.155Z,14.51
2022-11-15T13:24:54.734Z,15.16
2022-11-15T13:27:35.648Z,15.22
2022-11-15T13:30:05.883Z,15.23
2022-11-15T13:32:43.580Z,14.93
2022-11-15T13:35:11.408Z,15.31
2022-11-15T13:37:39.503Z,15.37
2022-11-15T13:40:25.469Z,14.80
2022-11-15T13:42:52.328Z,14.70
2022-11-15T13:45:27.205Z,14.62
2022-11-15T13:48:09.610Z,14.76
2022-11-15T13:50:39.763Z,15.17
2022-11-15T13:53:13.773Z,14.51
2022-11-15T13:55:43.672Z,14.92
2022-11-15T13:58:13.899Z,15.11
2022-11-15T14:00:48.883Z,15.05
2022-11-15T14:03:21.974Z,15.37
2022-11-15T14:06:19.138Z,15.41
2022-11-15T14:09:41.660Z,15.24
2022-11-15T14:12:43.651Z,14.72
2022-11-15T14:15:44.655Z,14.92
2022-11-15T14:18:47.674Z,14.81
2022-11-15T14:21:17.069Z,14.50
2022-11-15T14:23:48.760Z,14.38
2022-11-15T14:26:40.869Z,13.88
2022-11-15T14:29:35.481Z,13.83
2022-11-15T14:32:36.417Z,14.41
2022-11-15T14:35:20.674Z,14.21
2022-11-15T14:37:55.862Z,14.41
2022-11-15T14:40:23.459Z,14.04
2022-11-15T14:42:55.907Z,13.98
2022-11-15T14:45:26.963Z,13.76
2022-11-15T14:47:54.098Z,14.26
2022-11-15T14:50:27.601Z,14.42
2022-11-15T14:53:06.736Z,14.11
2022-11-15T14:55:44.853Z,14.37
2022-11-15T14:58:11.865Z,14.41
2022-11-15T15:00:46.492Z,15.13
2022-11-15T15:03:24.709Z,15.12
2022-11-15T15:05:51.372Z,14.39
2022-11-15T15:08:24.245Z,13.91
2022-11-15T15:10:54.167Z,13.62
2022-11-15T15:13:34.195Z,13.75
2022-11-15T15:16:01.425Z,13.64
2022-11-15T15:18:31.634Z,14.11
2022-11-15T15:21:03.999Z,13.64
2022-11-15T15:23:43.381Z,13.76
2022-11-15T15:26:15.458Z,13.70
2022-11-15T15:28:43.247Z,13.71
2022-11-15T15:31:16.895Z,13.48
2022-11-15T15:33:51.119Z,13.24
2022-11-15T15:36:20.973Z,13.90
2022-11-15T15:38:52.550Z,13.71
2022-11-15T15:41:30.114Z,13.40
2022-11-15T15:44:01.850Z,13.20
2022-11-15T15:46:57.244Z,13.60
2022-11-15T15:50:09.555Z,13.43
2022-11-15T15:52:54.281Z,13.48
2022-11-15T15:55:44.148Z,13.56
2022-11-15T15:58:31.537Z,13.41
2022-11-15T16:01:09.637Z,14.11
2022-11-15T16:03:47.446Z,14.00
2022-11-15T16:06:54.062Z,13.96
2022-11-15T16:09:59.727Z,13.46
2022-11-15T16:12:45.014Z,14.20
2022-11-15T16:15:27.768Z,13.94
2022-11-15T16:18:07.560Z,13.42
2022-11-15T16:20:51.543Z,13.30
2022-11-15T16:23:25.832Z,13.50
2022-11-15T16:26:03.021Z,13.44
2022-11-15T16:28:35.199Z,13.33
2022-11-15T16:31:12.362Z,13.58
2022-11-15T16:33:49.053Z,13.62
2022-11-15T16:36:30.452Z,13.36
2022-11-15T16:39:07.058Z,13.06
2022-11-15T16:41:41.952Z,13.52
2022-11-15T16:44:11.649Z,13.67
2022-11-15T16:46:56.137Z,13.48
2022-11-15T16:49:33.089Z,13.57
2022-11-15T16:52:05.753Z,13.29
2022-11-15T16:54:32.677Z,13.01
2022-11-15T16:57:32.139Z,13.23
2022-11-15T17:03:10.856Z,13.62
2022-11-15T17:05:38.502Z,13.50
2022-11-15T17:08:15.411Z,13.69
2022-11-15T17:10:44.893Z,13.94
2022-11-15T17:13:24.574Z,13.78
2022-11-15T17:16:14.024Z,13.72
2022-11-15T17:19:02.739Z,13.61
2022-11-15T17:21:35.639Z,13.61
2022-11-15T17:24:02.934Z,13.52
2022-11-15T17:26:35.065Z,13.36
2022-11-15T17:29:13.779Z,13.25
2022-11-15T17:31:49.946Z,13.18
2022-11-15T17:34:27.251Z,13.60
2022-11-15T17:37:05.074Z,13.39
2022-11-15T17:39:39.177Z,13.06
2022-11-15T17:42:08.793Z,13.08
2022-11-15T17:44:47.372Z,13.13
2022-11-15T17:47:15.018Z,13.25
2022-11-15T17:49:51.092Z,12.98
2022-11-15T17:52:23.697Z,13.18
2022-11-15T17:54:52.862Z,12.98
2022-11-15T17:57:25.378Z,12.88
2022-11-15T17:59:54.761Z,12.70
2022-11-15T18:02:22.948Z,12.55
2022-11-15T18:04:50.588Z,12.63
2022-11-15T18:07:17.719Z,12.84
2022-11-15T18:09:53.890Z,13.13
2022-11-15T18:12:35.198Z,13.31
2022-11-15T18:15:22.899Z,13.51
2022-11-15T18:17:50.460Z,13.05
2022-11-15T18:20:28.755Z,13.16
2022-11-15T18:23:03.111Z,12.95
2022-11-15T18:25:34.447Z,13.34
2022-11-15T18:28:12.366Z,13.34
2022-11-15T18:30:52.377Z,13.38
2022-11-15T18:33:45.152Z,13.26
2022-11-15T18:36:19.368Z,12.85
2022-11-15T18:39:22.358Z,13.46
2022-11-15T18:41:56.852Z,13.60
2022-11-15T18:44:51.652Z,13.70
2022-11-15T18:47:20.203Z,13.03
2022-11-15T18:50:09.003Z,13.16
2022-11-15T18:52:48.732Z,13.09
2022-11-15T18:55:26.699Z,13.22
2022-11-15T18:58:02.036Z,13.12
2022-11-15T19:00:39.032Z,13.93
2022-11-15T19:03:17.458Z,13.73
2022-11-15T19:06:05.770Z,13.94
2022-11-15T19:08:48.645Z,13.55
2022-11-15T19:11:30.948Z,14.03
2022-11-15T19:14:18.114Z,13.62
2022-11-15T19:16:52.666Z,13.19
2022-11-15T19:19:32.496Z,12.92
2022-11-15T19:21:59.112Z,12.64
2022-11-15T19:24:30.443Z,13.07
2022-11-15T19:27:07.912Z,12.66
2022-11-15T19:29:46.957Z,12.64
2022-11-15T19:32:20.489Z,12.96
2022-11-15T19:34:52.550Z,13.12
2022-11-15T19:37:19.290Z,13.07
2022-11-15T19:39:46.076Z,13.36
2022-11-15T19:42:15.325Z,13.11
2022-11-15T19:44:46.037Z,13.06
2022-11-15T19:47:18.597Z,12.83
2022-11-15T19:49:55.301Z,12.93
2022-11-15T19:52:33.022Z,12.92
2022-11-15T19:55:01.911Z,12.88
2022-11-15T19:57:31.871Z,13.26
2022-11-15T20:00:10.803Z,13.27
2022-11-15T20:02:38.210Z,13.23
2022-11-15T20:05:18.120Z,13.26
2022-11-15T20:08:05.355Z,13.15
2022-11-15T20:10:36.168Z,13.05
2022-11-15T20:13:13.876Z,13.05
2022-11-15T20:15:55.438Z,12.89
2022-11-15T20:18:34.177Z,12.58
2022-11-15T20:21:12.660Z,12.56
2022-11-15T20:23:51.323Z,12.70
2022-11-15T20:26:21.513Z,12.57
2022-11-15T20:28:54.187Z,13.09
2022-11-15T20:31:27.097Z,13.11
2022-11-15T20:34:07.174Z,13.28
2022-11-15T20:36:47.976Z,13.31
2022-11-15T20:39:22.944Z,12.93
2022-11-15T20:42:05.508Z,13.40
2022-11-15T20:44:49.070Z,13.54
2022-11-15T20:47:24.219Z,13.72
2022-11-15T20:50:09.722Z,13.85
2022-11-15T20:52:51.401Z,13.52
2022-11-15T20:55:23.285Z,13.14
2022-11-15T20:57:51.594Z,12.69
2022-11-15T21:00:29.809Z,12.46
2022-11-15T21:03:12.424Z,12.20
2022-11-15T21:06:02.241Z,12.43
2022-11-15T21:08:58.272Z,12.50
2022-11-15T21:11:57.697Z,12.68
2022-11-15T21:14:27.553Z,12.44
2022-11-15T21:17:22.148Z,12.98
2022-11-15T21:20:00.226Z,12.71
2022-11-15T21:22:45.655Z,12.38
2022-11-15T21:25:15.242Z,12.22
2022-11-15T21:27:49.771Z,12.08
2022-11-15T21:30:43.119Z,12.03
2022-11-15T21:33:28.627Z,12.09
2022-11-15T21:36:10.234Z,12.01
2022-11-15T21:38:58.366Z,11.90
2022-11-15T21:42:00.209Z,11.80
2022-11-15T21:44:50.430Z,11.83
2022-11-15T21:47:29.983Z,11.94
2022-11-15T21:50:05.500Z,12.02
2022-11-15T21:52:50.796Z,11.89
2022-11-15T21:55:29.295Z,11.81
2022-11-15T21:57:56.997Z,11.69
2022-11-15T22:00:50.001Z,11.72
2022-11-15T22:03:33.095Z,11.63
2022-11-15T22:06:09.873Z,11.81
2022-11-15T22:09:03.070Z,11.73
2022-11-15T22:12:01.245Z,11.96
2022-11-15T22:14:44.099Z,11.87
2022-11-15T22:17:11.531Z,11.69
2022-11-15T22:19:53.667Z,12.04
2022-11-15T22:22:39.159Z,12.25
2022-11-15T22:25:16.256Z,12.05
2022-11-15T22:27:44.265Z,11.89
2022-11-15T22:30:20.431Z,12.01
2022-11-15T22:32:49.488Z,11.79
2022-11-15T22:35:26.532Z,11.74
2022-11-15T22:37:55.160Z,11.67
2022-11-15T22:40:29.961Z,11.78
2022-11-15T22:43:00.251Z,11.80
2022-11-15T22:45:35.153Z,11.86
2022-11-15T22:48:04.340Z,12.16
2022-11-15T22:50:41.736Z,12.02
2022-11-15T22:53:09.748Z,12.44
2022-11-15T22:56:07.518Z,12.20
2022-11-15T22:58:42.762Z,12.53
2022-11-15T23:01:31.625Z,12.21
2022-11-15T23:04:01.358Z,12.05
2022-11-15T23:06:37.011Z,11.99
2022-11-15T23:09:15.202Z,11.91
2022-11-15T23:12:12.836Z,11.97
2022-11-15T23:14:49.606Z,12.05
2022-11-15T23:17:24.856Z,12.20
2022-11-15T23:20:16.626Z,11.99
2022-11-15T23:22:50.776Z,11.84
2022-11-15T23:25:33.675Z,12.01
2022-11-15T23:28:14.738Z,11.84
2022-11-15T23:31:10.466Z,11.97
2022-11-15T23:34:07.174Z,12.32
2022-11-15T23:36:41.825Z,12.32
2022-11-15T23:39:47.848Z,12.09
2022-11-15T23:42:26.469Z,11.86
2022-11-15T23:44:54.758Z,12.12
2022-11-15T23:47:26.609Z,12.10
2022-11-15T23:50:06.672Z,12.22
2022-11-15T23:52:43.776Z,12.07
2022-11-15T23:55:20.592Z,11.85
2022-11-15T23:57:51.483Z,11.66
